createdAt,value
2018-09-17T00:02:21.419Z,15.80
2018-09-17T00:04:49.972Z,15.80
2018-09-17T00:07:18.520Z,15.80
2018-09-17T00:09:46.931Z,15.70
2018-09-17T00:12:15.489Z,15.70
2018-09-17T00:14:43.946Z,15.60
2018-09-17T00:17:12.419Z,15.40
2018-09-17T00:19:40.889Z,15.30
2018-09-17T00:22:09.371Z,15.30
2018-09-17T00:24:37.827Z,15.30
2018-09-17T00:27:06.341Z,15.30
2018-09-17T00:29:34.934Z,15.30
2018-09-17T00:32:03.443Z,15.20
2018-09-17T00:34:31.866Z,15.20
2018-09-17T00:37:00.263Z,15.20
2018-09-17T00:39:28.784Z,15.20
2018-09-17T00:41:57.285Z,15.30
2018-09-17T00:44:25.749Z,15.20
2018-09-17T00:46:54.226Z,15.10
2018-09-17T00:49:22.706Z,15.20
2018-09-17T00:51:51.258Z,15.10
2018-09-17T00:54:20.451Z,15.00
2018-09-17T00:56:48.933Z,15.00
2018-09-17T00:59:17.661Z,15.00
2018-09-17T01:01:46.161Z,15.00
2018-09-17T01:04:14.669Z,15.00
2018-09-17T01:06:43.209Z,15.00
2018-09-17T01:09:15.849Z,14.90
2018-09-17T01:11:44.303Z,14.90
2018-09-17T01:14:12.797Z,14.90
2018-09-17T01:16:41.225Z,14.90
2018-09-17T01:19:09.663Z,14.90
2018-09-17T01:21:38.187Z,14.80
2018-09-17T01:24:06.771Z,14.80
2018-09-17T01:26:35.279Z,14.80
2018-09-17T01:29:03.830Z,14.70
2018-09-17T01:31:32.276Z,14.70
2018-09-17T01:34:00.716Z,14.70
2018-09-17T01:36:29.181Z,14.70
2018-09-17T01:38:57.629Z,14.70
2018-09-17T01:41:26.489Z,14.70
2018-09-17T01:43:54.914Z,14.60
2018-09-17T01:46:23.392Z,14.70
2018-09-17T01:48:51.829Z,14.60
2018-09-17T01:51:20.719Z,14.60
2018-09-17T01:53:49.196Z,14.60
2018-09-17T01:56:17.901Z,14.60
2018-09-17T01:58:46.337Z,14.60
2018-09-17T02:01:14.862Z,14.50
2018-09-17T02:03:43.423Z,14.60
2018-09-17T02:06:12.025Z,14.60
2018-09-17T02:08:40.677Z,14.50
2018-09-17T02:11:09.073Z,14.60
2018-09-17T02:13:37.604Z,14.60
2018-09-17T02:16:06.303Z,14.60
2018-09-17T02:18:34.702Z,14.60
2018-09-17T02:21:03.253Z,14.60
2018-09-17T02:23:31.797Z,14.60
2018-09-17T02:26:00.266Z,14.60
2018-09-17T02:28:28.712Z,14.60
2018-09-17T02:30:57.117Z,14.50
2018-09-17T02:33:25.875Z,14.50
2018-09-17T02:35:54.324Z,14.50
2018-09-17T02:38:22.763Z,14.50
2018-09-17T02:40:51.290Z,14.60
2018-09-17T02:43:19.824Z,14.60
2018-09-17T02:45:48.347Z,14.50
2018-09-17T02:48:16.871Z,14.50
2018-09-17T02:50:45.373Z,14.50
2018-09-17T02:53:14.235Z,14.50
2018-09-17T02:55:42.686Z,14.40
2018-09-17T02:58:11.353Z,14.30
2018-09-17T03:00:39.838Z,14.30
2018-09-17T03:03:08.284Z,14.20
2018-09-17T03:05:36.769Z,14.20
2018-09-17T03:08:05.329Z,14.10
2018-09-17T03:10:33.794Z,14.10
2018-09-17T03:13:02.248Z,14.00
2018-09-17T03:15:42.086Z,14.10
2018-09-17T03:18:10.524Z,14.10
2018-09-17T03:20:39.042Z,14.10
2018-09-17T03:23:07.516Z,14.10
2018-09-17T03:25:36.040Z,14.10
2018-09-17T03:28:04.570Z,14.10
2018-09-17T03:30:33.014Z,14.10
2018-09-17T03:33:01.551Z,14.10
2018-09-17T03:35:29.985Z,14.10
2018-09-17T03:38:12.994Z,14.10
2018-09-17T03:40:41.420Z,14.10
2018-09-17T03:43:09.828Z,14.10
2018-09-17T03:45:38.291Z,14.00
2018-09-17T03:48:06.830Z,13.90
2018-09-17T03:50:35.260Z,14.00
2018-09-17T03:53:10.311Z,13.90
2018-09-17T03:55:38.810Z,13.90
2018-09-17T03:58:07.231Z,13.80
2018-09-17T04:00:35.737Z,13.70
2018-09-17T04:03:04.196Z,13.70
2018-09-17T04:05:32.764Z,13.70
2018-09-17T04:08:01.288Z,13.70
2018-09-17T04:10:29.884Z,13.70
2018-09-17T04:12:58.452Z,13.80
2018-09-17T04:15:27.606Z,13.80
2018-09-17T04:17:56.596Z,13.70
2018-09-17T04:20:25.334Z,13.60
2018-09-17T04:22:54.136Z,13.60
2018-09-17T04:25:22.566Z,13.60
2018-09-17T04:27:51.081Z,13.50
2018-09-17T04:30:19.544Z,13.50
2018-09-17T04:32:48.042Z,13.50
2018-09-17T04:35:16.490Z,13.60
2018-09-17T04:37:44.961Z,13.60
2018-09-17T04:40:20.288Z,13.50
2018-09-17T04:42:48.718Z,13.50
2018-09-17T04:45:17.140Z,13.50
2018-09-17T04:47:45.582Z,13.50
2018-09-17T04:50:14.018Z,13.40
2018-09-17T04:52:42.500Z,13.40
2018-09-17T04:55:10.948Z,13.40
2018-09-17T04:57:39.577Z,13.50
2018-09-17T05:00:08.256Z,13.50
2018-09-17T05:02:36.834Z,13.50
2018-09-17T05:05:06.779Z,13.60
2018-09-17T05:07:35.208Z,13.70
2018-09-17T05:10:03.668Z,13.60
2018-09-17T05:12:32.096Z,13.60
2018-09-17T05:15:01.123Z,13.50
2018-09-17T05:17:29.537Z,13.60
2018-09-17T05:19:57.981Z,13.60
2018-09-17T05:22:26.542Z,13.70
2018-09-17T05:24:55.024Z,13.80
2018-09-17T05:27:23.532Z,13.90
2018-09-17T05:29:51.954Z,14.00
2018-09-17T05:32:20.449Z,14.20
2018-09-17T05:34:49.005Z,14.20
2018-09-17T05:37:24.220Z,14.40
2018-09-17T05:39:52.673Z,14.40
2018-09-17T05:42:21.273Z,14.50
2018-09-17T05:44:49.781Z,14.60
2018-09-17T05:47:18.256Z,14.70
2018-09-17T05:49:46.765Z,14.80
2018-09-17T05:52:15.280Z,14.90
2018-09-17T05:54:43.901Z,15.00
2018-09-17T05:57:12.506Z,15.10
2018-09-17T05:59:41.080Z,15.50
2018-09-17T06:02:09.784Z,15.90
2018-09-17T06:04:38.323Z,16.20
2018-09-17T06:07:06.968Z,16.60
2018-09-17T06:09:35.403Z,17.10
2018-09-17T06:12:03.882Z,17.50
2018-09-17T06:14:32.389Z,17.70
2018-09-17T06:17:00.819Z,17.90
2018-09-17T06:19:29.341Z,18.40
2018-09-17T06:21:57.881Z,18.60
2018-09-17T06:24:26.409Z,18.70
2018-09-17T06:26:55.049Z,19.00
2018-09-17T06:29:23.759Z,19.20
2018-09-17T06:31:52.422Z,19.50
2018-09-17T06:34:20.947Z,19.60
2018-09-17T06:36:49.445Z,19.70
2018-09-17T06:39:17.895Z,19.90
2018-09-17T06:41:46.395Z,20.00
2018-09-17T06:44:15.327Z,19.90
2018-09-17T06:46:43.743Z,20.50
2018-09-17T06:49:12.158Z,20.90
2018-09-17T06:51:40.596Z,20.60
2018-09-17T06:54:09.019Z,21.10
2018-09-17T06:56:37.498Z,21.60
2018-09-17T06:59:06.039Z,22.00
2018-09-17T07:01:34.488Z,21.90
2018-09-17T07:04:03.440Z,22.10
2018-09-17T07:06:31.960Z,22.60
2018-09-17T07:09:00.568Z,23.00
2018-09-17T07:11:29.525Z,23.10
2018-09-17T07:13:58.165Z,22.60
2018-09-17T07:16:26.827Z,23.10
2018-09-17T07:18:55.293Z,23.80
2018-09-17T07:21:23.820Z,24.30
2018-09-17T07:23:52.252Z,24.40
2018-09-17T07:26:20.801Z,23.50
2018-09-17T07:28:49.255Z,24.20
2018-09-17T07:31:17.783Z,24.80
2018-09-17T07:33:46.254Z,24.30
2018-09-17T07:36:14.778Z,24.20
2018-09-17T07:38:43.210Z,24.30
2018-09-17T07:41:11.708Z,24.80
2018-09-17T07:43:40.266Z,24.80
2018-09-17T07:46:08.810Z,25.80
2018-09-17T07:48:37.367Z,25.80
2018-09-17T07:51:05.873Z,25.50
2018-09-17T07:53:34.452Z,25.70
2018-09-17T07:56:02.980Z,25.80
2018-09-17T07:58:31.434Z,25.70
2018-09-17T08:00:59.870Z,25.80
2018-09-17T08:03:28.361Z,25.90
2018-09-17T08:05:56.904Z,26.40
2018-09-17T08:08:25.437Z,26.70
2018-09-17T08:10:54.046Z,26.00
2018-09-17T08:13:22.557Z,25.30
2018-09-17T08:15:51.016Z,24.80
2018-09-17T08:18:19.527Z,25.50
2018-09-17T08:20:48.046Z,26.30
2018-09-17T08:23:16.566Z,27.00
2018-09-17T08:25:45.120Z,27.30
2018-09-17T08:28:13.810Z,27.60
2018-09-17T08:30:42.372Z,29.00
2018-09-17T08:33:10.904Z,29.50
2018-09-17T08:35:39.399Z,29.80
2018-09-17T08:38:07.859Z,28.80
2018-09-17T08:40:36.348Z,28.50
2018-09-17T08:43:04.837Z,27.80
2018-09-17T08:45:33.284Z,28.30
2018-09-17T08:48:01.818Z,28.80
2018-09-17T08:50:30.313Z,27.80
2018-09-17T08:52:58.876Z,27.60
2018-09-17T08:55:32.578Z,26.70
2018-09-17T08:58:06.418Z,27.70
2018-09-17T09:00:40.303Z,28.60
2018-09-17T09:03:14.133Z,29.70
2018-09-17T09:05:47.848Z,30.30
2018-09-17T09:08:16.383Z,31.10
2018-09-17T09:10:46.821Z,30.90
2018-09-17T09:13:24.353Z,29.70
2018-09-17T09:15:52.946Z,30.80
2018-09-17T09:18:21.553Z,31.40
2018-09-17T09:20:50.243Z,31.20
2018-09-17T09:23:18.726Z,31.60
2018-09-17T09:25:47.296Z,31.90
2018-09-17T09:28:15.766Z,30.60
2018-09-17T09:30:44.299Z,30.70
2018-09-17T09:33:12.765Z,30.60
2018-09-17T09:35:41.246Z,31.30
2018-09-17T09:38:09.788Z,31.40
2018-09-17T09:40:38.503Z,31.90
2018-09-17T09:43:07.198Z,32.00
2018-09-17T09:45:35.752Z,31.30
2018-09-17T09:48:04.178Z,30.70
2018-09-17T09:50:32.692Z,28.80
2018-09-17T09:53:01.192Z,29.90
2018-09-17T09:55:29.715Z,30.70
2018-09-17T09:57:58.197Z,31.90
2018-09-17T10:00:32.163Z,32.20
2018-09-17T10:03:02.592Z,32.30
2018-09-17T10:05:31.372Z,31.40
2018-09-17T10:08:00.302Z,30.40
2018-09-17T10:10:34.240Z,29.80
2018-09-17T10:13:08.111Z,29.60
2018-09-17T10:15:42.266Z,30.60
2018-09-17T10:18:16.134Z,30.70
2018-09-17T10:20:44.596Z,30.90
2018-09-17T10:23:13.092Z,30.20
2018-09-17T10:25:41.645Z,29.50
2018-09-17T10:28:10.116Z,30.20
2018-09-17T10:30:38.618Z,30.90
2018-09-17T10:33:07.104Z,31.30
2018-09-17T10:35:35.629Z,29.50
2018-09-17T10:38:04.262Z,29.20
2018-09-17T10:40:33.303Z,29.30
2018-09-17T10:43:01.774Z,28.70
2018-09-17T10:45:30.264Z,28.10
2018-09-17T10:47:58.738Z,29.20
2018-09-17T10:50:27.280Z,30.30
2018-09-17T10:52:55.802Z,32.40
2018-09-17T10:55:24.341Z,32.50
2018-09-17T10:57:52.889Z,31.60
2018-09-17T11:00:22.301Z,31.40
2018-09-17T11:02:50.851Z,32.70
2018-09-17T11:05:19.498Z,30.60
2018-09-17T11:07:47.972Z,31.20
2018-09-17T11:10:16.564Z,31.70
2018-09-17T11:12:45.119Z,32.60
2018-09-17T11:15:13.616Z,33.80
2018-09-17T11:17:42.102Z,32.30
2018-09-17T11:20:10.590Z,32.60
2018-09-17T11:22:39.265Z,32.60
2018-09-17T11:25:07.780Z,33.50
2018-09-17T11:27:36.285Z,33.90
2018-09-17T11:30:06.114Z,33.50
2018-09-17T11:32:34.821Z,33.40
2018-09-17T11:35:03.492Z,33.20
2018-09-17T11:37:32.698Z,32.20
2018-09-17T11:40:01.214Z,31.80
2018-09-17T11:42:29.672Z,31.20
2018-09-17T11:44:58.142Z,33.00
2018-09-17T11:47:26.566Z,33.60
2018-09-17T11:49:55.019Z,34.00
2018-09-17T11:52:23.503Z,35.30
2018-09-17T11:54:52.001Z,35.00
2018-09-17T11:57:20.455Z,35.70
2018-09-17T11:59:49.030Z,35.70
2018-09-17T12:02:22.805Z,35.10
2018-09-17T12:05:16.790Z,32.20
2018-09-17T12:07:45.495Z,31.50
2018-09-17T12:10:14.131Z,31.60
2018-09-17T12:12:42.565Z,32.30
2018-09-17T12:15:11.082Z,32.40
2018-09-17T12:17:40.033Z,31.20
2018-09-17T12:20:08.559Z,30.00
2018-09-17T12:22:37.021Z,29.20
2018-09-17T12:25:05.538Z,29.50
2018-09-17T12:27:34.073Z,29.70
2018-09-17T12:30:02.614Z,29.40
2018-09-17T12:32:31.223Z,29.10
2018-09-17T12:34:59.813Z,29.00
2018-09-17T12:37:28.309Z,28.70
2018-09-17T12:39:56.908Z,30.20
2018-09-17T12:42:25.590Z,32.60
2018-09-17T12:44:54.175Z,34.10
2018-09-17T12:47:23.014Z,35.90
2018-09-17T12:49:51.641Z,36.70
2018-09-17T12:52:20.258Z,37.00
2018-09-17T12:54:48.992Z,37.10
2018-09-17T12:57:17.492Z,37.40
2018-09-17T12:59:46.054Z,38.20
2018-09-17T13:02:14.564Z,38.70
2018-09-17T13:04:43.018Z,39.00
2018-09-17T13:07:11.648Z,35.30
2018-09-17T13:09:40.202Z,36.00
2018-09-17T13:12:08.715Z,36.90
2018-09-17T13:14:37.293Z,36.50
2018-09-17T13:17:06.005Z,33.40
2018-09-17T13:19:34.553Z,32.20
2018-09-17T13:22:03.199Z,31.40
2018-09-17T13:24:31.902Z,29.50
2018-09-17T13:27:00.662Z,29.40
2018-09-17T13:29:29.231Z,29.00
2018-09-17T13:31:57.821Z,28.90
2018-09-17T13:34:26.947Z,28.30
2018-09-17T13:36:55.739Z,28.20
2018-09-17T13:39:24.328Z,28.00
2018-09-17T13:41:52.806Z,28.00
2018-09-17T13:44:21.353Z,27.90
2018-09-17T13:46:49.862Z,27.90
2018-09-17T13:49:18.319Z,27.40
2018-09-17T13:51:46.806Z,27.20
2018-09-17T13:54:15.412Z,27.20
2018-09-17T13:56:44.069Z,27.20
2018-09-17T13:59:12.958Z,27.40
2018-09-17T14:01:41.597Z,27.50
2018-09-17T14:04:10.195Z,27.60
2018-09-17T14:06:38.765Z,27.60
2018-09-17T14:09:10.850Z,27.60
2018-09-17T14:11:40.121Z,27.60
2018-09-17T14:14:08.868Z,27.50
2018-09-17T14:16:37.677Z,27.50
2018-09-17T14:19:06.191Z,27.30
2018-09-17T14:21:34.648Z,27.20
2018-09-17T14:24:03.122Z,27.30
2018-09-17T14:26:31.882Z,27.20
2018-09-17T14:29:00.384Z,27.40
2018-09-17T14:31:34.090Z,27.50
2018-09-17T14:34:02.562Z,27.50
2018-09-17T14:36:31.053Z,27.40
2018-09-17T14:38:59.820Z,27.40
2018-09-17T14:41:28.307Z,27.50
2018-09-17T14:43:56.792Z,27.60
2018-09-17T14:46:25.526Z,28.00
2018-09-17T14:48:53.952Z,28.40
2018-09-17T14:51:22.432Z,28.40
2018-09-17T14:53:51.022Z,27.80
2018-09-17T14:56:19.597Z,27.60
2018-09-17T14:58:48.262Z,27.10
2018-09-17T15:01:16.894Z,26.90
2018-09-17T15:03:45.443Z,26.80
2018-09-17T15:06:13.957Z,26.70
2018-09-17T15:08:42.574Z,26.80
2018-09-17T15:11:11.026Z,26.80
2018-09-17T15:13:40.438Z,26.60
2018-09-17T15:16:08.964Z,26.60
2018-09-17T15:18:37.607Z,26.40
2018-09-17T15:21:06.156Z,26.50
2018-09-17T15:23:34.646Z,26.60
2018-09-17T15:26:03.113Z,26.30
2018-09-17T15:28:31.619Z,26.40
2018-09-17T15:31:00.162Z,26.40
2018-09-17T15:33:28.748Z,26.40
2018-09-17T15:35:57.242Z,26.40
2018-09-17T15:38:25.854Z,26.30
2018-09-17T15:40:54.386Z,26.40
2018-09-17T15:43:23.011Z,26.40
2018-09-17T15:45:51.649Z,26.60
2018-09-17T15:48:20.193Z,26.70
2018-09-17T15:50:48.718Z,26.70
2018-09-17T15:53:17.234Z,26.70
2018-09-17T15:55:46.031Z,26.60
2018-09-17T15:58:14.584Z,26.10
2018-09-17T16:00:43.124Z,26.10
2018-09-17T16:03:11.723Z,26.20
2018-09-17T16:05:40.178Z,26.40
2018-09-17T16:08:15.332Z,26.60
2018-09-17T16:10:43.856Z,26.60
2018-09-17T16:13:12.411Z,26.30
2018-09-17T16:15:40.879Z,26.10
2018-09-17T16:18:09.427Z,26.10
2018-09-17T16:20:37.985Z,26.00
2018-09-17T16:23:06.449Z,26.10
2018-09-17T16:25:34.949Z,25.80
2018-09-17T16:28:03.470Z,25.80
2018-09-17T16:30:32.135Z,25.70
2018-09-17T16:33:00.761Z,25.60
2018-09-17T16:35:29.317Z,25.50
2018-09-17T16:37:57.756Z,25.30
2018-09-17T16:40:26.179Z,25.30
2018-09-17T16:42:54.625Z,25.20
2018-09-17T16:45:23.090Z,25.20
2018-09-17T16:47:51.689Z,25.20
2018-09-17T16:50:20.194Z,25.20
2018-09-17T16:52:48.772Z,25.20
2018-09-17T16:55:17.248Z,25.00
2018-09-17T16:57:46.167Z,24.80
2018-09-17T17:00:14.667Z,24.60
2018-09-17T17:02:43.191Z,24.50
2018-09-17T17:05:11.818Z,24.40
2018-09-17T17:07:40.492Z,24.20
2018-09-17T17:10:09.141Z,24.10
2018-09-17T17:12:37.641Z,24.00
2018-09-17T17:15:06.256Z,23.90
2018-09-17T17:17:35.019Z,23.80
2018-09-17T17:20:03.912Z,23.70
2018-09-17T17:22:32.572Z,23.50
2018-09-17T17:25:01.170Z,23.40
2018-09-17T17:27:29.775Z,23.30
2018-09-17T17:29:58.937Z,23.20
2018-09-17T17:32:27.639Z,23.10
2018-09-17T17:34:56.174Z,23.00
2018-09-17T17:37:24.786Z,23.00
2018-09-17T17:39:53.433Z,22.80
2018-09-17T17:42:21.875Z,22.70
2018-09-17T17:44:50.580Z,22.60
2018-09-17T17:47:19.305Z,22.50
2018-09-17T17:49:47.988Z,22.40
2018-09-17T17:52:17.013Z,22.30
2018-09-17T17:54:46.154Z,22.30
2018-09-17T17:57:14.825Z,22.20
2018-09-17T17:59:43.488Z,22.20
2018-09-17T18:02:12.239Z,22.10
2018-09-17T18:04:40.856Z,22.00
2018-09-17T18:07:10.137Z,21.90
2018-09-17T18:09:39.054Z,21.80
2018-09-17T18:12:08.135Z,21.70
2018-09-17T18:14:37.341Z,21.70
2018-09-17T18:17:06.674Z,21.50
2018-09-17T18:19:35.325Z,21.40
2018-09-17T18:22:03.980Z,21.30
2018-09-17T18:24:32.617Z,21.30
2018-09-17T18:27:01.300Z,21.20
2018-09-17T18:29:29.806Z,21.20
2018-09-17T18:31:58.373Z,21.10
2018-09-17T18:34:27.573Z,21.10
2018-09-17T18:36:56.579Z,21.00
2018-09-17T18:39:25.935Z,21.00
2018-09-17T18:41:54.604Z,20.90
2018-09-17T18:44:23.388Z,20.80
2018-09-17T18:46:52.100Z,20.70
2018-09-17T18:49:20.942Z,20.70
2018-09-17T18:51:49.673Z,20.60
2018-09-17T18:54:18.292Z,20.60
2018-09-17T18:56:46.970Z,20.60
2018-09-17T18:59:15.595Z,20.50
2018-09-17T19:01:44.308Z,20.40
2018-09-17T19:04:12.957Z,20.40
2018-09-17T19:06:41.640Z,20.30
2018-09-17T19:09:10.278Z,20.30
2018-09-17T19:11:38.851Z,20.30
2018-09-17T19:14:12.872Z,20.10
2018-09-17T19:16:49.799Z,20.10
2018-09-17T19:19:18.699Z,19.90
2018-09-17T19:21:52.601Z,19.90
2018-09-17T19:24:21.154Z,19.80
2018-09-17T19:26:50.001Z,19.70
2018-09-17T19:29:20.399Z,19.60
2018-09-17T19:31:49.276Z,19.60
2018-09-17T19:34:17.897Z,19.60
2018-09-17T19:36:47.086Z,19.50
2018-09-17T19:39:20.956Z,19.50
2018-09-17T19:41:49.568Z,19.40
2018-09-17T19:44:19.201Z,19.30
2018-09-17T19:46:47.858Z,19.30
2018-09-17T19:49:17.365Z,19.20
2018-09-17T19:51:51.084Z,19.20
2018-09-17T19:54:19.930Z,19.20
2018-09-17T19:56:48.555Z,19.10
2018-09-17T19:59:22.571Z,19.10
2018-09-17T20:01:51.804Z,19.10
2018-09-17T20:04:25.705Z,19.10
2018-09-17T20:06:54.194Z,19.00
2018-09-17T20:09:22.789Z,19.00
2018-09-17T20:11:51.397Z,19.00
2018-09-17T20:14:19.909Z,18.90
2018-09-17T20:16:51.483Z,18.80
2018-09-17T20:19:20.077Z,18.70
2018-09-17T20:21:48.706Z,18.70
2018-09-17T20:24:17.206Z,18.70
2018-09-17T20:26:45.754Z,18.60
2018-09-17T20:29:14.352Z,18.50
2018-09-17T20:31:43.046Z,18.50
2018-09-17T20:34:11.613Z,18.40
2018-09-17T20:36:41.625Z,18.40
2018-09-17T20:39:10.490Z,18.40
2018-09-17T20:41:39.243Z,18.30
2018-09-17T20:44:09.041Z,18.30
2018-09-17T20:46:38.680Z,18.20
2018-09-17T20:49:07.296Z,18.20
2018-09-17T20:51:35.840Z,18.20
2018-09-17T20:54:04.326Z,18.10
2018-09-17T20:56:33.149Z,18.10
2018-09-17T20:59:01.649Z,18.00
2018-09-17T21:01:30.249Z,18.00
2018-09-17T21:03:59.419Z,17.90
2018-09-17T21:06:27.879Z,17.90
2018-09-17T21:08:57.579Z,17.80
2018-09-17T21:11:26.149Z,17.80
2018-09-17T21:13:54.750Z,17.80
2018-09-17T21:16:23.311Z,17.80
2018-09-17T21:18:51.888Z,17.80
2018-09-17T21:21:20.444Z,17.70
2018-09-17T21:23:49.178Z,17.70
2018-09-17T21:26:17.666Z,17.70
2018-09-17T21:28:46.243Z,17.60
2018-09-17T21:31:14.904Z,17.60
2018-09-17T21:33:43.413Z,17.60
2018-09-17T21:36:12.094Z,17.50
2018-09-17T21:38:40.632Z,17.50
2018-09-17T21:41:09.221Z,17.40
2018-09-17T21:43:37.711Z,17.40
2018-09-17T21:46:06.501Z,17.40
2018-09-17T21:48:34.982Z,17.30
2018-09-17T21:51:03.644Z,17.30
2018-09-17T21:53:32.090Z,17.20
2018-09-17T21:56:00.633Z,17.20
2018-09-17T21:58:29.205Z,17.20
2018-09-17T22:01:01.769Z,17.20
2018-09-17T22:03:31.708Z,17.10
2018-09-17T22:06:00.376Z,17.10
2018-09-17T22:08:29.476Z,17.10
2018-09-17T22:10:58.060Z,17.00
2018-09-17T22:13:26.844Z,17.00
2018-09-17T22:15:55.481Z,17.00
2018-09-17T22:18:24.273Z,17.00
2018-09-17T22:20:52.794Z,16.90
2018-09-17T22:23:21.259Z,16.90
2018-09-17T22:25:49.676Z,16.80
2018-09-17T22:28:18.157Z,16.80
2018-09-17T22:30:46.622Z,16.70
2018-09-17T22:33:15.153Z,16.80
2018-09-17T22:35:43.724Z,16.70
2018-09-17T22:38:12.185Z,16.70
2018-09-17T22:43:19.106Z,16.60
2018-09-17T22:45:47.848Z,16.60
2018-09-17T22:48:16.384Z,16.60
2018-09-17T22:50:44.864Z,16.50
2018-09-17T22:53:13.329Z,16.50
2018-09-17T22:55:41.782Z,16.50
2018-09-17T22:58:10.262Z,16.50
2018-09-17T23:00:38.754Z,16.40
2018-09-17T23:03:07.360Z,16.40
2018-09-17T23:05:35.882Z,16.50
2018-09-17T23:08:04.723Z,16.40
2018-09-17T23:10:33.272Z,16.30
2018-09-17T23:13:01.799Z,16.30
2018-09-17T23:15:30.310Z,16.30
2018-09-17T23:17:58.774Z,16.30
2018-09-17T23:20:27.301Z,16.30
2018-09-17T23:22:55.771Z,16.30
2018-09-17T23:25:24.240Z,16.30
2018-09-17T23:27:52.736Z,16.20
2018-09-17T23:30:21.179Z,16.10
2018-09-17T23:32:49.683Z,16.00
2018-09-17T23:35:18.175Z,16.00
2018-09-17T23:37:46.630Z,15.90
2018-09-17T23:40:15.167Z,15.90
2018-09-17T23:42:43.658Z,15.80
2018-09-17T23:45:12.279Z,15.80
2018-09-17T23:47:40.846Z,15.80
2018-09-17T23:50:09.618Z,15.70
2018-09-17T23:52:38.182Z,15.70
2018-09-17T23:55:06.727Z,15.70
2018-09-17T23:57:35.160Z,15.70
